sensor_id;sensor_type;location;lat;lon;timestamp;P1;P2;P0
55441;PMS5003;41313;58.740;50.174;2022-08-03T00:03:53;39.33;37.67;22.33
55441;PMS5003;41313;58.740;50.174;2022-08-03T00:08:55;45.33;40.33;24.00
55441;PMS5003;41313;58.740;50.174;2022-08-03T00:13:57;35.33;34.00;21.00
55441;PMS5003;41313;58.740;50.174;2022-08-03T00:18:59;35.67;34.67;22.67
55441;PMS5003;41313;58.740;50.174;2022-08-03T00:24:03;35.00;34.67;22.00
55441;PMS5003;41313;58.740;50.174;2022-08-03T00:29:05;40.33;37.67;23.33
55441;PMS5003;41313;58.740;50.174;2022-08-03T00:34:06;37.00;35.00;22.33
55441;PMS5003;41313;58.740;50.174;2022-08-03T00:39:08;38.00;37.00;22.00
55441;PMS5003;41313;58.740;50.174;2022-08-03T00:44:09;33.33;31.33;19.00
55441;PMS5003;41313;58.740;50.174;2022-08-03T00:49:11;36.33;35.67;23.67
55441;PMS5003;41313;58.740;50.174;2022-08-03T00:54:13;40.67;39.33;24.33
55441;PMS5003;41313;58.740;50.174;2022-08-03T00:59:16;35.33;34.00;20.67
55441;PMS5003;41313;58.740;50.174;2022-08-03T01:04:18;35.33;35.33;21.00
55441;PMS5003;41313;58.740;50.174;2022-08-03T01:14:57;38.00;34.00;18.67
55441;PMS5003;41313;58.740;50.174;2022-08-03T01:20:08;38.33;36.33;22.67
55441;PMS5003;41313;58.740;50.174;2022-08-03T01:25:23;37.67;37.00;22.33
55441;PMS5003;41313;58.740;50.174;2022-08-03T01:30:52;44.67;39.00;22.67
55441;PMS5003;41313;58.740;50.174;2022-08-03T01:35:58;44.00;38.33;22.00
55441;PMS5003;41313;58.740;50.174;2022-08-03T01:41:06;45.67;40.00;26.00
55441;PMS5003;41313;58.740;50.174;2022-08-03T01:46:12;40.33;38.67;23.00
55441;PMS5003;41313;58.740;50.174;2022-08-03T01:51:17;47.00;39.67;26.67
55441;PMS5003;41313;58.740;50.174;2022-08-03T01:56:21;47.00;41.67;25.67
55441;PMS5003;41313;58.740;50.174;2022-08-03T02:01:26;45.33;40.33;27.67
55441;PMS5003;41313;58.740;50.174;2022-08-03T02:06:30;43.67;40.67;25.33
55441;PMS5003;41313;58.740;50.174;2022-08-03T02:11:34;59.33;50.67;32.67
55441;PMS5003;41313;58.740;50.174;2022-08-03T02:16:38;52.33;45.00;28.00
55441;PMS5003;41313;58.740;50.174;2022-08-03T02:21:40;46.00;41.67;25.67
55441;PMS5003;41313;58.740;50.174;2022-08-03T02:26:45;38.67;37.00;22.00
55441;PMS5003;41313;58.740;50.174;2022-08-03T02:31:49;33.67;32.33;21.33
55441;PMS5003;41313;58.740;50.174;2022-08-03T02:36:52;29.67;29.67;19.67
55441;PMS5003;41313;58.740;50.174;2022-08-03T02:41:56;30.50;30.50;18.00
55441;PMS5003;41313;58.740;50.174;2022-08-03T02:47:04;26.67;26.67;18.33
55441;PMS5003;41313;58.740;50.174;2022-08-03T02:52:09;29.00;29.00;17.50
55441;PMS5003;41313;58.740;50.174;2022-08-03T02:57:14;97.50;84.75;44.25
55441;PMS5003;41313;58.740;50.174;2022-08-03T03:02:19;20.00;20.00;13.75
55441;PMS5003;41313;58.740;50.174;2022-08-03T03:07:22;24.50;24.50;15.75
55441;PMS5003;41313;58.740;50.174;2022-08-03T03:12:24;17.75;17.75;14.25
55441;PMS5003;41313;58.740;50.174;2022-08-03T03:17:27;23.50;22.25;15.00
55441;PMS5003;41313;58.740;50.174;2022-08-03T03:22:32;39.67;37.00;24.67
55441;PMS5003;41313;58.740;50.174;2022-08-03T03:27:34;19.33;19.33;13.67
55441;PMS5003;41313;58.740;50.174;2022-08-03T03:32:37;33.00;33.00;21.00
55441;PMS5003;41313;58.740;50.174;2022-08-03T03:37:39;24.00;24.00;17.75
55441;PMS5003;41313;58.740;50.174;2022-08-03T03:42:41;21.00;21.00;13.50
55441;PMS5003;41313;58.740;50.174;2022-08-03T03:47:43;21.75;21.75;15.50
55441;PMS5003;41313;58.740;50.174;2022-08-03T03:52:44;36.75;35.00;22.00
55441;PMS5003;41313;58.740;50.174;2022-08-03T03:57:46;31.75;31.00;19.75
55441;PMS5003;41313;58.740;50.174;2022-08-03T04:02:48;36.50;34.50;21.00
55441;PMS5003;41313;58.740;50.174;2022-08-03T04:07:54;38.50;35.25;21.50
55441;PMS5003;41313;58.740;50.174;2022-08-03T04:13:18;34.33;32.00;20.00
55441;PMS5003;41313;58.740;50.174;2022-08-03T04:18:22;48.67;40.33;24.67
55441;PMS5003;41313;58.740;50.174;2022-08-03T04:23:25;30.50;29.75;20.00
55441;PMS5003;41313;58.740;50.174;2022-08-03T04:28:29;47.67;41.00;27.00
55441;PMS5003;41313;58.740;50.174;2022-08-03T04:33:34;36.00;34.25;21.50
55441;PMS5003;41313;58.740;50.174;2022-08-03T04:38:39;46.50;39.50;23.75
55441;PMS5003;41313;58.740;50.174;2022-08-03T04:43:53;13.50;13.50;10.00
55441;PMS5003;41313;58.740;50.174;2022-08-03T04:48:58;17.50;17.50;12.50
55441;PMS5003;41313;58.740;50.174;2022-08-03T04:54:01;16.00;16.00;11.75
55441;PMS5003;41313;58.740;50.174;2022-08-03T04:59:02;34.25;33.50;24.75
55441;PMS5003;41313;58.740;50.174;2022-08-03T05:04:04;17.75;17.75;11.75
55441;PMS5003;41313;58.740;50.174;2022-08-03T05:09:05;10.75;10.50;7.25
55441;PMS5003;41313;58.740;50.174;2022-08-03T05:14:07;7.75;7.75;5.75
55441;PMS5003;41313;58.740;50.174;2022-08-03T05:19:09;7.00;7.00;5.75
55441;PMS5003;41313;58.740;50.174;2022-08-03T05:24:10;13.25;13.25;8.75
55441;PMS5003;41313;58.740;50.174;2022-08-03T05:29:12;12.00;11.00;7.75
55441;PMS5003;41313;58.740;50.174;2022-08-03T05:34:13;13.00;13.00;8.25
55441;PMS5003;41313;58.740;50.174;2022-08-03T05:39:15;9.50;9.50;8.00
55441;PMS5003;41313;58.740;50.174;2022-08-03T05:44:16;7.25;7.25;5.00
55441;PMS5003;41313;58.740;50.174;2022-08-03T05:49:18;13.50;13.50;9.50
55441;PMS5003;41313;58.740;50.174;2022-08-03T05:54:20;23.75;23.75;16.25
55441;PMS5003;41313;58.740;50.174;2022-08-03T05:59:22;19.75;17.75;8.75
55441;PMS5003;41313;58.740;50.174;2022-08-03T06:04:25;7.00;7.00;6.00
55441;PMS5003;41313;58.740;50.174;2022-08-03T06:09:27;13.00;13.00;9.00
55441;PMS5003;41313;58.740;50.174;2022-08-03T06:14:29;9.75;9.75;7.00
55441;PMS5003;41313;58.740;50.174;2022-08-03T06:19:30;6.75;6.75;6.00
55441;PMS5003;41313;58.740;50.174;2022-08-03T06:24:32;6.25;6.25;5.50
55441;PMS5003;41313;58.740;50.174;2022-08-03T06:29:34;5.25;5.25;4.50
55441;PMS5003;41313;58.740;50.174;2022-08-03T06:34:35;14.75;14.75;12.00
55441;PMS5003;41313;58.740;50.174;2022-08-03T06:39:37;6.75;6.75;5.00
55441;PMS5003;41313;58.740;50.174;2022-08-03T06:44:38;5.50;5.50;5.00
55441;PMS5003;41313;58.740;50.174;2022-08-03T06:49:40;3.25;3.25;2.50
55441;PMS5003;41313;58.740;50.174;2022-08-03T06:54:42;5.75;5.75;4.25
55441;PMS5003;41313;58.740;50.174;2022-08-03T06:59:44;4.50;4.50;4.00
55441;PMS5003;41313;58.740;50.174;2022-08-03T07:04:48;39.75;35.50;22.50
55441;PMS5003;41313;58.740;50.174;2022-08-03T07:09:50;6.75;6.75;6.00
55441;PMS5003;41313;58.740;50.174;2022-08-03T07:14:52;9.50;9.50;7.00
55441;PMS5003;41313;58.740;50.174;2022-08-03T07:19:54;3.00;3.00;3.00
55441;PMS5003;41313;58.740;50.174;2022-08-03T07:24:57;15.00;14.25;10.25
55441;PMS5003;41313;58.740;50.174;2022-08-03T07:30:00;7.75;7.75;6.00
55441;PMS5003;41313;58.740;50.174;2022-08-03T07:35:04;4.00;4.00;3.75
55441;PMS5003;41313;58.740;50.174;2022-08-03T07:40:07;4.25;4.25;3.25
55441;PMS5003;41313;58.740;50.174;2022-08-03T07:45:09;57.67;49.00;32.33
55441;PMS5003;41313;58.740;50.174;2022-08-03T07:50:10;5.25;5.25;3.50
55441;PMS5003;41313;58.740;50.174;2022-08-03T07:55:12;4.00;4.00;3.00
55441;PMS5003;41313;58.740;50.174;2022-08-03T08:00:15;5.75;5.75;4.25
55441;PMS5003;41313;58.740;50.174;2022-08-03T08:05:18;8.50;8.50;6.00
55441;PMS5003;41313;58.740;50.174;2022-08-03T08:10:20;7.75;7.75;5.00
55441;PMS5003;41313;58.740;50.174;2022-08-03T08:15:22;5.25;5.25;4.50
55441;PMS5003;41313;58.740;50.174;2022-08-03T08:20:26;5.00;5.00;4.50
55441;PMS5003;41313;58.740;50.174;2022-08-03T08:25:32;3.25;3.25;3.00
55441;PMS5003;41313;58.740;50.174;2022-08-03T08:30:34;4.00;4.00;3.25
55441;PMS5003;41313;58.740;50.174;2022-08-03T08:35:36;3.25;3.25;2.00
55441;PMS5003;41313;58.740;50.174;2022-08-03T08:40:38;5.00;5.00;4.00
55441;PMS5003;41313;58.740;50.174;2022-08-03T08:45:39;5.25;5.25;4.75
55441;PMS5003;41313;58.740;50.174;2022-08-03T08:50:41;4.75;4.75;4.00
55441;PMS5003;41313;58.740;50.174;2022-08-03T08:55:45;3.00;3.00;2.00
55441;PMS5003;41313;58.740;50.174;2022-08-03T09:00:47;6.00;6.00;5.00
55441;PMS5003;41313;58.740;50.174;2022-08-03T09:05:50;3.50;3.50;3.25
55441;PMS5003;41313;58.740;50.174;2022-08-03T09:10:52;3.00;3.00;3.00
55441;PMS5003;41313;58.740;50.174;2022-08-03T09:21:15;3.75;3.75;3.00
55441;PMS5003;41313;58.740;50.174;2022-08-03T09:26:22;6.00;6.00;6.00
55441;PMS5003;41313;58.740;50.174;2022-08-03T09:31:41;6.00;6.00;5.50
55441;PMS5003;41313;58.740;50.174;2022-08-03T09:36:45;7.75;7.75;6.75
55441;PMS5003;41313;58.740;50.174;2022-08-03T09:42:03;5.00;5.00;4.25
55441;PMS5003;41313;58.740;50.174;2022-08-03T09:47:07;5.00;5.00;5.00
55441;PMS5003;41313;58.740;50.174;2022-08-03T09:52:19;7.50;7.50;6.50
55441;PMS5003;41313;58.740;50.174;2022-08-03T09:57:24;4.00;4.00;3.50
55441;PMS5003;41313;58.740;50.174;2022-08-03T10:02:27;4.75;4.75;4.50
55441;PMS5003;41313;58.740;50.174;2022-08-03T10:07:29;7.25;7.25;6.00
55441;PMS5003;41313;58.740;50.174;2022-08-03T10:12:41;8.25;8.25;7.00
55441;PMS5003;41313;58.740;50.174;2022-08-03T10:17:44;5.25;5.25;5.00
55441;PMS5003;41313;58.740;50.174;2022-08-03T10:22:45;6.75;6.75;6.50
55441;PMS5003;41313;58.740;50.174;2022-08-03T10:27:48;12.25;12.25;9.25
55441;PMS5003;41313;58.740;50.174;2022-08-03T10:32:58;9.25;9.25;7.00
55441;PMS5003;41313;58.740;50.174;2022-08-03T10:38:08;5.00;5.00;4.25
55441;PMS5003;41313;58.740;50.174;2022-08-03T10:43:20;4.00;4.00;3.00
55441;PMS5003;41313;58.740;50.174;2022-08-03T10:48:25;5.00;5.00;4.25
55441;PMS5003;41313;58.740;50.174;2022-08-03T10:53:45;6.00;6.00;6.00
55441;PMS5003;41313;58.740;50.174;2022-08-03T10:58:51;5.25;5.25;4.75
55441;PMS5003;41313;58.740;50.174;2022-08-03T11:14:17;48.33;41.67;26.00
55441;PMS5003;41313;58.740;50.174;2022-08-03T11:19:20;11.00;11.00;9.75
55441;PMS5003;41313;58.740;50.174;2022-08-03T11:30:01;83.67;76.00;34.33
55441;PMS5003;41313;58.740;50.174;2022-08-03T11:40:33;25.50;25.50;19.00
55441;PMS5003;41313;58.740;50.174;2022-08-03T11:45:36;7.25;7.25;6.75
55441;PMS5003;41313;58.740;50.174;2022-08-03T11:50:38;3.75;3.75;3.00
55441;PMS5003;41313;58.740;50.174;2022-08-03T11:55:40;4.00;4.00;3.00
55441;PMS5003;41313;58.740;50.174;2022-08-03T12:00:43;6.00;6.00;4.25
55441;PMS5003;41313;58.740;50.174;2022-08-03T12:05:46;2.25;2.25;2.00
55441;PMS5003;41313;58.740;50.174;2022-08-03T12:10:52;2.00;2.00;1.50
55441;PMS5003;41313;58.740;50.174;2022-08-03T12:15:56;6.00;6.00;4.00
55441;PMS5003;41313;58.740;50.174;2022-08-03T12:21:03;6.50;6.50;5.00
55441;PMS5003;41313;58.740;50.174;2022-08-03T12:26:09;5.00;5.00;4.00
55441;PMS5003;41313;58.740;50.174;2022-08-03T12:31:10;3.25;3.25;3.00
55441;PMS5003;41313;58.740;50.174;2022-08-03T12:36:14;2.50;2.50;2.00
55441;PMS5003;41313;58.740;50.174;2022-08-03T12:41:17;19.00;19.00;12.00
55441;PMS5003;41313;58.740;50.174;2022-08-03T12:46:38;8.75;8.75;6.75
55441;PMS5003;41313;58.740;50.174;2022-08-03T13:02:20;3.75;3.75;3.50
55441;PMS5003;41313;58.740;50.174;2022-08-03T13:07:23;4.00;4.00;4.00
55441;PMS5003;41313;58.740;50.174;2022-08-03T13:12:26;23.00;23.00;16.75
55441;PMS5003;41313;58.740;50.174;2022-08-03T13:17:29;8.00;8.00;6.75
55441;PMS5003;41313;58.740;50.174;2022-08-03T13:22:31;5.50;5.50;5.00
55441;PMS5003;41313;58.740;50.174;2022-08-03T13:27:36;12.00;11.50;7.00
55441;PMS5003;41313;58.740;50.174;2022-08-03T13:32:38;7.00;7.00;6.00
55441;PMS5003;41313;58.740;50.174;2022-08-03T13:37:40;3.25;3.25;2.75
55441;PMS5003;41313;58.740;50.174;2022-08-03T13:42:41;5.25;5.25;4.50
55441;PMS5003;41313;58.740;50.174;2022-08-03T13:47:43;5.25;5.25;4.75
55441;PMS5003;41313;58.740;50.174;2022-08-03T13:52:45;3.00;3.00;2.00
55441;PMS5003;41313;58.740;50.174;2022-08-03T13:57:47;4.00;4.00;3.75
55441;PMS5003;41313;58.740;50.174;2022-08-03T14:02:48;4.00;4.00;4.00
55441;PMS5003;41313;58.740;50.174;2022-08-03T14:07:50;5.00;5.00;4.00
55441;PMS5003;41313;58.740;50.174;2022-08-03T14:12:51;6.00;6.00;5.25
55441;PMS5003;41313;58.740;50.174;2022-08-03T14:17:53;25.00;25.00;17.00
55441;PMS5003;41313;58.740;50.174;2022-08-03T14:22:56;2.50;2.50;2.50
55441;PMS5003;41313;58.740;50.174;2022-08-03T14:27:57;7.00;7.00;5.50
55441;PMS5003;41313;58.740;50.174;2022-08-03T14:32:59;6.00;6.00;4.50
55441;PMS5003;41313;58.740;50.174;2022-08-03T14:38:00;9.00;9.00;7.00
55441;PMS5003;41313;58.740;50.174;2022-08-03T14:43:02;9.50;9.50;5.75
55441;PMS5003;41313;58.740;50.174;2022-08-03T14:48:05;6.25;6.25;5.75
55441;PMS5003;41313;58.740;50.174;2022-08-03T14:53:07;8.00;8.00;6.75
55441;PMS5003;41313;58.740;50.174;2022-08-03T14:58:08;10.50;10.50;9.00
55441;PMS5003;41313;58.740;50.174;2022-08-03T15:03:09;8.25;8.25;6.00
55441;PMS5003;41313;58.740;50.174;2022-08-03T15:08:11;7.25;7.25;6.75
55441;PMS5003;41313;58.740;50.174;2022-08-03T15:13:13;13.00;12.00;9.00
55441;PMS5003;41313;58.740;50.174;2022-08-03T15:18:15;13.75;13.75;9.00
55441;PMS5003;41313;58.740;50.174;2022-08-03T15:23:17;14.25;14.25;11.50
55441;PMS5003;41313;58.740;50.174;2022-08-03T15:28:20;18.00;18.00;13.00
55441;PMS5003;41313;58.740;50.174;2022-08-03T15:33:21;25.00;25.00;18.75
55441;PMS5003;41313;58.740;50.174;2022-08-03T15:38:23;19.75;19.75;13.75
55441;PMS5003;41313;58.740;50.174;2022-08-03T15:43:25;36.50;33.50;22.75
55441;PMS5003;41313;58.740;50.174;2022-08-03T15:48:27;27.00;27.00;20.00
55441;PMS5003;41313;58.740;50.174;2022-08-03T15:53:28;34.50;32.50;23.00
55441;PMS5003;41313;58.740;50.174;2022-08-03T15:58:30;27.00;27.00;19.75
55441;PMS5003;41313;58.740;50.174;2022-08-03T16:03:33;32.00;31.00;23.00
55441;PMS5003;41313;58.740;50.174;2022-08-03T16:08:34;31.50;31.00;22.00
55441;PMS5003;41313;58.740;50.174;2022-08-03T16:13:36;34.25;33.00;23.25
55441;PMS5003;41313;58.740;50.174;2022-08-03T16:18:38;33.33;32.33;22.67
55441;PMS5003;41313;58.740;50.174;2022-08-03T16:23:40;29.75;29.75;20.75
55441;PMS5003;41313;58.740;50.174;2022-08-03T16:28:41;29.25;27.25;18.00
55441;PMS5003;41313;58.740;50.174;2022-08-03T16:33:43;36.75;33.75;22.25
55441;PMS5003;41313;58.740;50.174;2022-08-03T16:38:45;48.00;41.33;27.33
55441;PMS5003;41313;58.740;50.174;2022-08-03T16:43:46;59.00;48.33;32.00
55441;PMS5003;41313;58.740;50.174;2022-08-03T16:48:48;65.33;53.00;35.33
55441;PMS5003;41313;58.740;50.174;2022-08-03T16:53:50;53.00;45.33;29.00
55441;PMS5003;41313;58.740;50.174;2022-08-03T16:58:51;52.67;43.67;28.33
55441;PMS5003;41313;58.740;50.174;2022-08-03T17:03:55;44.67;38.00;25.00
55441;PMS5003;41313;58.740;50.174;2022-08-03T17:08:58;32.75;31.75;21.00
55441;PMS5003;41313;58.740;50.174;2022-08-03T17:14:00;39.25;34.75;24.50
55441;PMS5003;41313;58.740;50.174;2022-08-03T17:19:03;55.33;47.00;32.00
55441;PMS5003;41313;58.740;50.174;2022-08-03T17:24:13;59.33;49.00;33.67
55441;PMS5003;41313;58.740;50.174;2022-08-03T17:29:25;65.00;52.67;34.33
55441;PMS5003;41313;58.740;50.174;2022-08-03T17:34:29;50.67;42.67;28.33
55441;PMS5003;41313;58.740;50.174;2022-08-03T17:39:31;26.75;26.75;20.25
55441;PMS5003;41313;58.740;50.174;2022-08-03T17:44:34;29.00;29.00;21.50
55441;PMS5003;41313;58.740;50.174;2022-08-03T17:49:36;36.00;33.67;24.67
55441;PMS5003;41313;58.740;50.174;2022-08-03T18:00:09;35.33;34.00;24.67
55441;PMS5003;41313;58.740;50.174;2022-08-03T18:05:32;28.00;26.75;19.75
55441;PMS5003;41313;58.740;50.174;2022-08-03T18:10:36;23.00;23.00;16.25
55441;PMS5003;41313;58.740;50.174;2022-08-03T18:15:48;22.00;22.00;17.25
55441;PMS5003;41313;58.740;50.174;2022-08-03T18:20:54;18.50;18.50;13.75
55441;PMS5003;41313;58.740;50.174;2022-08-03T18:25:56;20.00;20.00;15.25
55441;PMS5003;41313;58.740;50.174;2022-08-03T18:30:59;20.25;20.25;16.50
55441;PMS5003;41313;58.740;50.174;2022-08-03T18:36:02;23.00;22.75;16.25
55441;PMS5003;41313;58.740;50.174;2022-08-03T18:41:07;18.75;18.75;14.75
55441;PMS5003;41313;58.740;50.174;2022-08-03T18:46:21;22.00;22.00;18.00
55441;PMS5003;41313;58.740;50.174;2022-08-03T18:51:25;22.75;22.75;17.00
55441;PMS5003;41313;58.740;50.174;2022-08-03T18:56:32;20.75;20.75;15.75
55441;PMS5003;41313;58.740;50.174;2022-08-03T19:02:00;21.25;21.25;15.50
55441;PMS5003;41313;58.740;50.174;2022-08-03T19:07:07;22.75;22.75;17.50
55441;PMS5003;41313;58.740;50.174;2022-08-03T19:12:12;20.75;20.75;15.50
55441;PMS5003;41313;58.740;50.174;2022-08-03T19:17:22;25.50;25.50;19.50
55441;PMS5003;41313;58.740;50.174;2022-08-03T19:22:25;27.75;27.75;20.50
55441;PMS5003;41313;58.740;50.174;2022-08-03T19:27:31;29.50;28.75;22.25
55441;PMS5003;41313;58.740;50.174;2022-08-03T19:32:33;25.75;25.25;18.25
55441;PMS5003;41313;58.740;50.174;2022-08-03T19:37:36;25.25;24.00;17.00
55441;PMS5003;41313;58.740;50.174;2022-08-03T19:42:39;18.75;18.75;15.00
55441;PMS5003;41313;58.740;50.174;2022-08-03T19:47:46;22.50;21.00;17.00
55441;PMS5003;41313;58.740;50.174;2022-08-03T19:52:52;19.75;19.00;14.25
55441;PMS5003;41313;58.740;50.174;2022-08-03T19:57:56;13.75;13.75;12.00
55441;PMS5003;41313;58.740;50.174;2022-08-03T20:03:01;14.25;14.25;11.25
55441;PMS5003;41313;58.740;50.174;2022-08-03T20:08:04;14.00;14.00;10.00
55441;PMS5003;41313;58.740;50.174;2022-08-03T20:13:06;15.50;15.50;12.25
55441;PMS5003;41313;58.740;50.174;2022-08-03T20:18:08;17.25;17.25;12.25
55441;PMS5003;41313;58.740;50.174;2022-08-03T20:23:10;12.50;12.00;9.75
55441;PMS5003;41313;58.740;50.174;2022-08-03T20:33:52;15.50;15.50;12.25
55441;PMS5003;41313;58.740;50.174;2022-08-03T20:38:54;18.75;18.75;18.00
55441;PMS5003;41313;58.740;50.174;2022-08-03T20:43:56;19.00;19.00;14.00
55441;PMS5003;41313;58.740;50.174;2022-08-03T20:48:57;21.00;20.25;13.75
55441;PMS5003;41313;58.740;50.174;2022-08-03T20:53:59;17.00;17.00;13.25
55441;PMS5003;41313;58.740;50.174;2022-08-03T20:59:02;18.50;18.50;14.75
55441;PMS5003;41313;58.740;50.174;2022-08-03T21:04:06;15.75;15.75;10.75
55441;PMS5003;41313;58.740;50.174;2022-08-03T21:09:16;17.75;17.75;13.00
55441;PMS5003;41313;58.740;50.174;2022-08-03T21:14:24;19.25;19.25;13.00
55441;PMS5003;41313;58.740;50.174;2022-08-03T21:19:30;15.25;15.25;12.00
55441;PMS5003;41313;58.740;50.174;2022-08-03T21:24:34;18.25;18.25;15.25
55441;PMS5003;41313;58.740;50.174;2022-08-03T21:29:50;18.50;18.50;14.00
55441;PMS5003;41313;58.740;50.174;2022-08-03T21:34:52;17.25;17.25;12.00
55441;PMS5003;41313;58.740;50.174;2022-08-03T21:39:55;15.00;15.00;11.00
55441;PMS5003;41313;58.740;50.174;2022-08-03T21:44:57;19.25;19.25;14.25
55441;PMS5003;41313;58.740;50.174;2022-08-03T21:49:59;22.25;21.75;15.50
55441;PMS5003;41313;58.740;50.174;2022-08-03T21:55:04;24.00;23.25;15.25
55441;PMS5003;41313;58.740;50.174;2022-08-03T22:05:16;13.00;13.00;10.75
55441;PMS5003;41313;58.740;50.174;2022-08-03T22:10:18;12.75;12.75;10.00
55441;PMS5003;41313;58.740;50.174;2022-08-03T22:15:21;12.00;12.00;10.00
55441;PMS5003;41313;58.740;50.174;2022-08-03T22:20:23;14.25;14.25;9.50
55441;PMS5003;41313;58.740;50.174;2022-08-03T22:25:28;11.75;11.75;10.75
55441;PMS5003;41313;58.740;50.174;2022-08-03T22:30:32;11.50;11.50;9.00
55441;PMS5003;41313;58.740;50.174;2022-08-03T22:35:35;15.25;15.25;11.50
55441;PMS5003;41313;58.740;50.174;2022-08-03T22:40:40;16.25;16.25;11.25
55441;PMS5003;41313;58.740;50.174;2022-08-03T22:45:45;14.75;13.50;11.00
55441;PMS5003;41313;58.740;50.174;2022-08-03T22:50:47;16.75;16.25;12.25
55441;PMS5003;41313;58.740;50.174;2022-08-03T22:55:50;12.25;12.25;11.25
55441;PMS5003;41313;58.740;50.174;2022-08-03T23:01:03;0.00;0.00;0.00
55441;PMS5003;41313;58.740;50.174;2022-08-03T23:06:07;8.25;8.25;8.00
55441;PMS5003;41313;58.740;50.174;2022-08-03T23:11:09;10.50;10.50;8.50
55441;PMS5003;41313;58.740;50.174;2022-08-03T23:16:12;14.00;14.00;10.75
55441;PMS5003;41313;58.740;50.174;2022-08-03T23:21:16;15.50;15.50;10.75
55441;PMS5003;41313;58.740;50.174;2022-08-03T23:26:19;17.00;17.00;12.25
55441;PMS5003;41313;58.740;50.174;2022-08-03T23:31:22;12.75;12.75;12.00
55441;PMS5003;41313;58.740;50.174;2022-08-03T23:36:25;12.50;12.50;10.00
55441;PMS5003;41313;58.740;50.174;2022-08-03T23:41:27;12.75;12.75;9.00
55441;PMS5003;41313;58.740;50.174;2022-08-03T23:46:30;15.25;15.25;13.00
